sensor_id;sensor_type;location;lat;lon;timestamp;temperature;humidity
36990;DHT22;22898;52.102;5.776;2022-07-29T00:01:06;23.30;72.60
36990;DHT22;22898;52.102;5.776;2022-07-29T00:03:32;23.40;72.20
36990;DHT22;22898;52.102;5.776;2022-07-29T00:05:58;23.30;72.90
36990;DHT22;22898;52.102;5.776;2022-07-29T00:08:23;23.30;72.90
36990;DHT22;22898;52.102;5.776;2022-07-29T00:10:49;23.10;73.60
36990;DHT22;22898;52.102;5.776;2022-07-29T00:13:15;23.10;73.60
36990;DHT22;22898;52.102;5.776;2022-07-29T00:15:41;23.20;73.20
36990;DHT22;22898;52.102;5.776;2022-07-29T00:18:07;23.10;73.60
36990;DHT22;22898;52.102;5.776;2022-07-29T00:20:33;22.90;74.00
36990;DHT22;22898;52.102;5.776;2022-07-29T00:22:59;22.80;74.20
36990;DHT22;22898;52.102;5.776;2022-07-29T00:25:26;22.80;74.60
36990;DHT22;22898;52.102;5.776;2022-07-29T00:27:55;22.70;74.70
36990;DHT22;22898;52.102;5.776;2022-07-29T00:30:20;22.60;75.10
36990;DHT22;22898;52.102;5.776;2022-07-29T00:32:49;22.70;75.00
36990;DHT22;22898;52.102;5.776;2022-07-29T00:35:15;22.60;75.10
36990;DHT22;22898;52.102;5.776;2022-07-29T00:37:59;22.50;75.60
36990;DHT22;22898;52.102;5.776;2022-07-29T00:40:27;22.50;75.70
36990;DHT22;22898;52.102;5.776;2022-07-29T00:42:53;22.60;75.20
36990;DHT22;22898;52.102;5.776;2022-07-29T00:45:19;22.70;74.70
36990;DHT22;22898;52.102;5.776;2022-07-29T00:47:45;22.80;74.50
36990;DHT22;22898;52.102;5.776;2022-07-29T00:50:12;22.80;74.40
36990;DHT22;22898;52.102;5.776;2022-07-29T00:52:41;22.80;74.40
36990;DHT22;22898;52.102;5.776;2022-07-29T00:55:10;22.80;74.40
36990;DHT22;22898;52.102;5.776;2022-07-29T00:57:36;22.80;74.70
36990;DHT22;22898;52.102;5.776;2022-07-29T01:00:07;22.80;74.40
36990;DHT22;22898;52.102;5.776;2022-07-29T01:02:34;22.80;74.40
36990;DHT22;22898;52.102;5.776;2022-07-29T01:05:01;22.80;74.40
36990;DHT22;22898;52.102;5.776;2022-07-29T01:07:27;23.00;73.90
36990;DHT22;22898;52.102;5.776;2022-07-29T01:09:54;22.80;74.10
36990;DHT22;22898;52.102;5.776;2022-07-29T01:12:26;22.90;74.20
36990;DHT22;22898;52.102;5.776;2022-07-29T01:14:53;22.90;74.20
36990;DHT22;22898;52.102;5.776;2022-07-29T01:17:44;22.80;74.30
36990;DHT22;22898;52.102;5.776;2022-07-29T01:20:20;22.90;74.20
36990;DHT22;22898;52.102;5.776;2022-07-29T01:29:07;22.80;74.30
36990;DHT22;22898;52.102;5.776;2022-07-29T01:31:58;22.70;74.60
36990;DHT22;22898;52.102;5.776;2022-07-29T01:34:41;22.80;74.30
36990;DHT22;22898;52.102;5.776;2022-07-29T01:40:21;23.20;73.80
36990;DHT22;22898;52.102;5.776;2022-07-29T01:42:54;23.30;73.10
36990;DHT22;22898;52.102;5.776;2022-07-29T01:45:31;23.30;73.30
36990;DHT22;22898;52.102;5.776;2022-07-29T01:48:45;23.20;73.30
36990;DHT22;22898;52.102;5.776;2022-07-29T01:51:24;23.30;72.90
36990;DHT22;22898;52.102;5.776;2022-07-29T01:54:13;23.20;72.90
36990;DHT22;22898;52.102;5.776;2022-07-29T01:56:40;23.10;73.50
36990;DHT22;22898;52.102;5.776;2022-07-29T01:59:08;23.10;73.60
36990;DHT22;22898;52.102;5.776;2022-07-29T02:01:36;23.20;73.50
36990;DHT22;22898;52.102;5.776;2022-07-29T02:04:05;23.10;73.70
36990;DHT22;22898;52.102;5.776;2022-07-29T02:06:34;22.90;73.80
36990;DHT22;22898;52.102;5.776;2022-07-29T02:09:04;22.90;73.60
36990;DHT22;22898;52.102;5.776;2022-07-29T02:11:31;22.70;74.40
36990;DHT22;22898;52.102;5.776;2022-07-29T02:14:10;22.70;74.50
36990;DHT22;22898;52.102;5.776;2022-07-29T02:16:48;22.80;74.10
36990;DHT22;22898;52.102;5.776;2022-07-29T02:19:17;23.00;73.70
36990;DHT22;22898;52.102;5.776;2022-07-29T02:21:45;23.10;73.20
36990;DHT22;22898;52.102;5.776;2022-07-29T02:24:16;23.30;72.50
36990;DHT22;22898;52.102;5.776;2022-07-29T02:26:44;23.30;72.70
36990;DHT22;22898;52.102;5.776;2022-07-29T02:29:24;23.40;72.40
36990;DHT22;22898;52.102;5.776;2022-07-29T02:31:54;23.50;72.40
36990;DHT22;22898;52.102;5.776;2022-07-29T02:34:37;23.50;72.10
36990;DHT22;22898;52.102;5.776;2022-07-29T02:37:12;23.50;71.90
36990;DHT22;22898;52.102;5.776;2022-07-29T02:40:00;23.50;71.90
36990;DHT22;22898;52.102;5.776;2022-07-29T02:46:15;23.50;72.40
36990;DHT22;22898;52.102;5.776;2022-07-29T02:49:18;23.50;72.20
36990;DHT22;22898;52.102;5.776;2022-07-29T02:54:54;23.60;71.70
36990;DHT22;22898;52.102;5.776;2022-07-29T03:00:19;23.50;72.50
36990;DHT22;22898;52.102;5.776;2022-07-29T03:02:59;23.50;72.90
36990;DHT22;22898;52.102;5.776;2022-07-29T03:05:29;23.60;73.40
36990;DHT22;22898;52.102;5.776;2022-07-29T03:08:06;23.60;73.20
36990;DHT22;22898;52.102;5.776;2022-07-29T03:10:39;23.50;74.30
36990;DHT22;22898;52.102;5.776;2022-07-29T03:13:09;23.40;74.50
36990;DHT22;22898;52.102;5.776;2022-07-29T03:15:37;23.40;75.20
36990;DHT22;22898;52.102;5.776;2022-07-29T03:18:09;23.30;75.40
36990;DHT22;22898;52.102;5.776;2022-07-29T03:20:36;23.40;75.20
36990;DHT22;22898;52.102;5.776;2022-07-29T03:23:05;23.40;75.30
36990;DHT22;22898;52.102;5.776;2022-07-29T03:25:31;23.40;75.30
36990;DHT22;22898;52.102;5.776;2022-07-29T03:27:57;23.20;75.80
36990;DHT22;22898;52.102;5.776;2022-07-29T03:30:23;23.10;75.80
36990;DHT22;22898;52.102;5.776;2022-07-29T03:32:52;23.00;76.60
36990;DHT22;22898;52.102;5.776;2022-07-29T03:35:25;22.80;76.90
36990;DHT22;22898;52.102;5.776;2022-07-29T03:38:11;22.70;77.10
36990;DHT22;22898;52.102;5.776;2022-07-29T03:40:51;22.50;78.30
36990;DHT22;22898;52.102;5.776;2022-07-29T03:43:18;22.30;79.00
36990;DHT22;22898;52.102;5.776;2022-07-29T03:45:48;22.30;78.90
36990;DHT22;22898;52.102;5.776;2022-07-29T03:48:17;22.30;79.20
36990;DHT22;22898;52.102;5.776;2022-07-29T03:50:44;22.30;79.20
36990;DHT22;22898;52.102;5.776;2022-07-29T03:53:10;22.10;80.10
36990;DHT22;22898;52.102;5.776;2022-07-29T03:55:41;22.00;81.10
36990;DHT22;22898;52.102;5.776;2022-07-29T03:58:12;21.90;81.80
36990;DHT22;22898;52.102;5.776;2022-07-29T04:00:38;21.90;82.10
36990;DHT22;22898;52.102;5.776;2022-07-29T04:03:05;21.80;82.60
36990;DHT22;22898;52.102;5.776;2022-07-29T04:05:42;21.60;82.50
36990;DHT22;22898;52.102;5.776;2022-07-29T04:08:08;21.50;83.20
36990;DHT22;22898;52.102;5.776;2022-07-29T04:10:37;21.20;83.90
36990;DHT22;22898;52.102;5.776;2022-07-29T04:13:05;21.10;84.70
36990;DHT22;22898;52.102;5.776;2022-07-29T04:15:34;21.10;84.90
36990;DHT22;22898;52.102;5.776;2022-07-29T04:18:00;21.20;84.50
36990;DHT22;22898;52.102;5.776;2022-07-29T04:20:26;21.30;84.00
36990;DHT22;22898;52.102;5.776;2022-07-29T04:22:52;21.20;84.20
36990;DHT22;22898;52.102;5.776;2022-07-29T04:25:18;21.20;84.50
36990;DHT22;22898;52.102;5.776;2022-07-29T04:27:44;21.10;84.50
36990;DHT22;22898;52.102;5.776;2022-07-29T04:30:32;21.00;85.70
36990;DHT22;22898;52.102;5.776;2022-07-29T04:32:59;21.00;86.00
36990;DHT22;22898;52.102;5.776;2022-07-29T04:38:51;20.90;86.20
36990;DHT22;22898;52.102;5.776;2022-07-29T04:41:35;19.70;90.90
36990;DHT22;22898;52.102;5.776;2022-07-29T04:44:04;19.10;92.00
36990;DHT22;22898;52.102;5.776;2022-07-29T04:46:31;18.90;92.70
36990;DHT22;22898;52.102;5.776;2022-07-29T04:49:04;19.30;91.90
36990;DHT22;22898;52.102;5.776;2022-07-29T04:51:39;20.00;91.10
36990;DHT22;22898;52.102;5.776;2022-07-29T04:54:08;20.40;90.30
36990;DHT22;22898;52.102;5.776;2022-07-29T04:56:40;20.50;90.10
36990;DHT22;22898;52.102;5.776;2022-07-29T04:59:07;20.60;89.80
36990;DHT22;22898;52.102;5.776;2022-07-29T05:01:43;20.70;89.70
36990;DHT22;22898;52.102;5.776;2022-07-29T05:04:12;20.70;90.20
36990;DHT22;22898;52.102;5.776;2022-07-29T05:06:40;20.90;89.40
36990;DHT22;22898;52.102;5.776;2022-07-29T05:09:12;21.00;88.40
36990;DHT22;22898;52.102;5.776;2022-07-29T05:11:41;20.70;89.30
36990;DHT22;22898;52.102;5.776;2022-07-29T05:14:09;20.50;90.20
36990;DHT22;22898;52.102;5.776;2022-07-29T05:16:35;20.50;90.00
36990;DHT22;22898;52.102;5.776;2022-07-29T05:19:01;20.50;90.40
36990;DHT22;22898;52.102;5.776;2022-07-29T05:24:05;21.10;89.20
36990;DHT22;22898;52.102;5.776;2022-07-29T05:26:34;21.40;88.20
36990;DHT22;22898;52.102;5.776;2022-07-29T05:32:10;21.80;85.90
36990;DHT22;22898;52.102;5.776;2022-07-29T05:34:42;21.90;85.20
36990;DHT22;22898;52.102;5.776;2022-07-29T05:37:14;21.70;85.40
36990;DHT22;22898;52.102;5.776;2022-07-29T05:39:51;21.60;86.00
36990;DHT22;22898;52.102;5.776;2022-07-29T05:42:17;21.60;86.10
36990;DHT22;22898;52.102;5.776;2022-07-29T05:44:42;21.60;86.00
36990;DHT22;22898;52.102;5.776;2022-07-29T05:47:18;21.70;85.50
36990;DHT22;22898;52.102;5.776;2022-07-29T05:49:46;21.90;85.20
36990;DHT22;22898;52.102;5.776;2022-07-29T05:52:17;22.00;84.90
36990;DHT22;22898;52.102;5.776;2022-07-29T05:54:46;22.00;84.50
36990;DHT22;22898;52.102;5.776;2022-07-29T05:57:19;22.10;84.90
36990;DHT22;22898;52.102;5.776;2022-07-29T05:59:45;22.10;84.70
36990;DHT22;22898;52.102;5.776;2022-07-29T06:02:11;22.20;84.70
36990;DHT22;22898;52.102;5.776;2022-07-29T06:05:01;22.40;84.40
36990;DHT22;22898;52.102;5.776;2022-07-29T06:07:26;22.40;83.90
36990;DHT22;22898;52.102;5.776;2022-07-29T06:09:58;22.50;83.30
36990;DHT22;22898;52.102;5.776;2022-07-29T06:12:27;22.60;83.80
36990;DHT22;22898;52.102;5.776;2022-07-29T06:14:53;22.70;83.50
36990;DHT22;22898;52.102;5.776;2022-07-29T06:17:19;22.70;82.60
36990;DHT22;22898;52.102;5.776;2022-07-29T06:19:44;22.80;81.60
36990;DHT22;22898;52.102;5.776;2022-07-29T06:22:15;22.70;81.70
36990;DHT22;22898;52.102;5.776;2022-07-29T06:24:41;22.60;82.60
36990;DHT22;22898;52.102;5.776;2022-07-29T06:27:10;22.60;82.90
36990;DHT22;22898;52.102;5.776;2022-07-29T06:29:35;22.60;82.20
36990;DHT22;22898;52.102;5.776;2022-07-29T06:32:01;22.70;81.90
36990;DHT22;22898;52.102;5.776;2022-07-29T06:34:27;22.70;81.70
36990;DHT22;22898;52.102;5.776;2022-07-29T06:36:53;22.80;81.60
36990;DHT22;22898;52.102;5.776;2022-07-29T06:39:19;22.80;81.70
36990;DHT22;22898;52.102;5.776;2022-07-29T06:41:49;22.80;81.60
36990;DHT22;22898;52.102;5.776;2022-07-29T06:44:16;22.80;81.40
36990;DHT22;22898;52.102;5.776;2022-07-29T06:46:41;22.80;81.00
36990;DHT22;22898;52.102;5.776;2022-07-29T06:49:07;23.00;80.80
36990;DHT22;22898;52.102;5.776;2022-07-29T06:51:36;22.90;80.90
36990;DHT22;22898;52.102;5.776;2022-07-29T06:54:02;22.80;80.80
36990;DHT22;22898;52.102;5.776;2022-07-29T06:56:31;22.80;80.70
36990;DHT22;22898;52.102;5.776;2022-07-29T06:58:57;22.80;81.00
36990;DHT22;22898;52.102;5.776;2022-07-29T07:01:23;22.60;81.30
36990;DHT22;22898;52.102;5.776;2022-07-29T07:03:48;22.50;81.50
36990;DHT22;22898;52.102;5.776;2022-07-29T07:06:14;22.60;81.70
36990;DHT22;22898;52.102;5.776;2022-07-29T07:08:40;22.70;81.40
36990;DHT22;22898;52.102;5.776;2022-07-29T07:11:06;22.80;80.70
36990;DHT22;22898;52.102;5.776;2022-07-29T07:13:32;23.10;79.70
36990;DHT22;22898;52.102;5.776;2022-07-29T07:16:01;23.10;80.10
36990;DHT22;22898;52.102;5.776;2022-07-29T07:18:27;23.20;78.90
36990;DHT22;22898;52.102;5.776;2022-07-29T07:20:53;23.30;78.50
36990;DHT22;22898;52.102;5.776;2022-07-29T07:23:18;23.50;78.50
36990;DHT22;22898;52.102;5.776;2022-07-29T07:25:44;23.40;77.90
36990;DHT22;22898;52.102;5.776;2022-07-29T07:28:10;23.40;78.20
36990;DHT22;22898;52.102;5.776;2022-07-29T07:30:36;23.50;78.50
36990;DHT22;22898;52.102;5.776;2022-07-29T07:33:02;23.30;78.50
36990;DHT22;22898;52.102;5.776;2022-07-29T07:35:28;23.60;78.00
36990;DHT22;22898;52.102;5.776;2022-07-29T07:37:55;23.80;77.60
36990;DHT22;22898;52.102;5.776;2022-07-29T07:40:20;23.70;78.00
36990;DHT22;22898;52.102;5.776;2022-07-29T07:42:46;23.60;77.70
36990;DHT22;22898;52.102;5.776;2022-07-29T07:45:12;23.40;78.80
36990;DHT22;22898;52.102;5.776;2022-07-29T07:47:38;23.70;77.70
36990;DHT22;22898;52.102;5.776;2022-07-29T07:50:09;23.90;76.20
36990;DHT22;22898;52.102;5.776;2022-07-29T07:52:46;24.20;76.20
36990;DHT22;22898;52.102;5.776;2022-07-29T07:55:12;24.10;76.00
36990;DHT22;22898;52.102;5.776;2022-07-29T07:57:38;23.70;77.70
36990;DHT22;22898;52.102;5.776;2022-07-29T08:00:04;23.70;77.70
36990;DHT22;22898;52.102;5.776;2022-07-29T08:02:30;23.70;78.50
36990;DHT22;22898;52.102;5.776;2022-07-29T08:04:56;23.70;79.20
36990;DHT22;22898;52.102;5.776;2022-07-29T08:07:22;24.00;77.80
36990;DHT22;22898;52.102;5.776;2022-07-29T08:09:48;24.20;77.00
36990;DHT22;22898;52.102;5.776;2022-07-29T08:12:13;23.80;78.00
36990;DHT22;22898;52.102;5.776;2022-07-29T08:14:39;24.00;78.80
36990;DHT22;22898;52.102;5.776;2022-07-29T08:17:04;24.20;77.20
36990;DHT22;22898;52.102;5.776;2022-07-29T08:19:30;24.00;78.20
36990;DHT22;22898;52.102;5.776;2022-07-29T08:21:56;23.90;77.60
36990;DHT22;22898;52.102;5.776;2022-07-29T08:24:22;23.90;77.30
36990;DHT22;22898;52.102;5.776;2022-07-29T08:27:07;23.80;77.80
36990;DHT22;22898;52.102;5.776;2022-07-29T08:29:32;24.30;76.30
36990;DHT22;22898;52.102;5.776;2022-07-29T08:31:58;24.70;75.10
36990;DHT22;22898;52.102;5.776;2022-07-29T08:34:24;25.00;74.10
36990;DHT22;22898;52.102;5.776;2022-07-29T08:36:49;25.20;73.50
36990;DHT22;22898;52.102;5.776;2022-07-29T08:39:15;25.40;73.20
36990;DHT22;22898;52.102;5.776;2022-07-29T08:41:40;25.30;73.90
36990;DHT22;22898;52.102;5.776;2022-07-29T08:44:06;24.90;75.80
36990;DHT22;22898;52.102;5.776;2022-07-29T08:46:32;24.90;75.30
36990;DHT22;22898;52.102;5.776;2022-07-29T08:48:58;24.90;74.60
36990;DHT22;22898;52.102;5.776;2022-07-29T08:51:25;24.90;75.00
36990;DHT22;22898;52.102;5.776;2022-07-29T08:53:53;25.10;74.10
36990;DHT22;22898;52.102;5.776;2022-07-29T08:56:20;25.20;73.80
36990;DHT22;22898;52.102;5.776;2022-07-29T08:58:47;25.30;74.00
36990;DHT22;22898;52.102;5.776;2022-07-29T09:01:17;25.60;73.40
36990;DHT22;22898;52.102;5.776;2022-07-29T09:03:44;26.00;71.00
36990;DHT22;22898;52.102;5.776;2022-07-29T09:06:13;26.10;70.70
36990;DHT22;22898;52.102;5.776;2022-07-29T09:08:39;26.20;71.70
36990;DHT22;22898;52.102;5.776;2022-07-29T09:11:06;26.20;72.30
36990;DHT22;22898;52.102;5.776;2022-07-29T09:13:33;26.30;70.60
36990;DHT22;22898;52.102;5.776;2022-07-29T09:16:00;26.30;70.50
36990;DHT22;22898;52.102;5.776;2022-07-29T09:21:01;26.70;68.70
36990;DHT22;22898;52.102;5.776;2022-07-29T09:26:31;27.00;67.50
36990;DHT22;22898;52.102;5.776;2022-07-29T09:28:58;27.20;66.60
36990;DHT22;22898;52.102;5.776;2022-07-29T09:31:36;27.30;66.10
36990;DHT22;22898;52.102;5.776;2022-07-29T09:34:02;27.30;65.90
36990;DHT22;22898;52.102;5.776;2022-07-29T09:36:28;27.10;66.20
36990;DHT22;22898;52.102;5.776;2022-07-29T09:38:59;26.90;67.70
36990;DHT22;22898;52.102;5.776;2022-07-29T09:41:25;27.00;66.30
36990;DHT22;22898;52.102;5.776;2022-07-29T09:43:58;26.90;67.20
36990;DHT22;22898;52.102;5.776;2022-07-29T09:46:25;26.70;67.50
36990;DHT22;22898;52.102;5.776;2022-07-29T09:49:07;26.70;67.60
36990;DHT22;22898;52.102;5.776;2022-07-29T09:51:34;27.00;67.00
36990;DHT22;22898;52.102;5.776;2022-07-29T09:54:00;27.40;65.40
36990;DHT22;22898;52.102;5.776;2022-07-29T09:56:39;27.70;65.80
36990;DHT22;22898;52.102;5.776;2022-07-29T09:59:06;28.10;65.50
36990;DHT22;22898;52.102;5.776;2022-07-29T10:01:32;28.10;64.50
36990;DHT22;22898;52.102;5.776;2022-07-29T10:03:58;28.30;64.80
36990;DHT22;22898;52.102;5.776;2022-07-29T10:06:24;28.60;63.90
36990;DHT22;22898;52.102;5.776;2022-07-29T10:08:49;28.20;64.90
36990;DHT22;22898;52.102;5.776;2022-07-29T10:11:18;28.20;68.00
36990;DHT22;22898;52.102;5.776;2022-07-29T10:13:46;28.70;66.80
36990;DHT22;22898;52.102;5.776;2022-07-29T10:16:13;28.90;65.50
36990;DHT22;22898;52.102;5.776;2022-07-29T10:18:40;29.10;64.50
36990;DHT22;22898;52.102;5.776;2022-07-29T10:21:06;29.30;66.90
36990;DHT22;22898;52.102;5.776;2022-07-29T10:23:52;29.50;66.60
36990;DHT22;22898;52.102;5.776;2022-07-29T10:26:19;29.60;66.60
36990;DHT22;22898;52.102;5.776;2022-07-29T10:28:45;29.40;67.40
36990;DHT22;22898;52.102;5.776;2022-07-29T10:31:19;29.50;67.10
36990;DHT22;22898;52.102;5.776;2022-07-29T10:33:57;29.60;66.50
36990;DHT22;22898;52.102;5.776;2022-07-29T10:44:22;29.70;66.20
36990;DHT22;22898;52.102;5.776;2022-07-29T10:46:49;29.10;67.20
36990;DHT22;22898;52.102;5.776;2022-07-29T10:49:19;29.20;66.10
36990;DHT22;22898;52.102;5.776;2022-07-29T10:57:28;29.20;65.00
36990;DHT22;22898;52.102;5.776;2022-07-29T11:05:15;28.90;64.20
36990;DHT22;22898;52.102;5.776;2022-07-29T11:08:18;28.70;63.80
36990;DHT22;22898;52.102;5.776;2022-07-29T11:16:13;29.00;63.30
36990;DHT22;22898;52.102;5.776;2022-07-29T11:21:37;29.50;64.20
36990;DHT22;22898;52.102;5.776;2022-07-29T11:24:23;29.70;62.90
36990;DHT22;22898;52.102;5.776;2022-07-29T11:27:15;29.70;61.60
36990;DHT22;22898;52.102;5.776;2022-07-29T11:29:51;29.30;61.60
36990;DHT22;22898;52.102;5.776;2022-07-29T11:32:21;29.30;60.10
36990;DHT22;22898;52.102;5.776;2022-07-29T11:35:09;28.90;61.90
36990;DHT22;22898;52.102;5.776;2022-07-29T11:37:36;29.00;62.00
36990;DHT22;22898;52.102;5.776;2022-07-29T11:45:11;29.70;58.40
36990;DHT22;22898;52.102;5.776;2022-07-29T11:50:35;29.50;58.70
36990;DHT22;22898;52.102;5.776;2022-07-29T11:53:03;29.00;57.80
36990;DHT22;22898;52.102;5.776;2022-07-29T11:55:29;29.20;57.90
36990;DHT22;22898;52.102;5.776;2022-07-29T11:58:00;29.30;57.80
36990;DHT22;22898;52.102;5.776;2022-07-29T12:00:36;29.40;58.10
36990;DHT22;22898;52.102;5.776;2022-07-29T12:03:08;29.30;59.00
36990;DHT22;22898;52.102;5.776;2022-07-29T12:05:44;29.50;59.20
36990;DHT22;22898;52.102;5.776;2022-07-29T12:08:17;29.60;58.60
36990;DHT22;22898;52.102;5.776;2022-07-29T12:10:45;29.50;59.20
36990;DHT22;22898;52.102;5.776;2022-07-29T12:13:12;29.60;59.70
36990;DHT22;22898;52.102;5.776;2022-07-29T12:15:39;29.90;59.30
36990;DHT22;22898;52.102;5.776;2022-07-29T12:18:17;29.90;58.40
36990;DHT22;22898;52.102;5.776;2022-07-29T12:20:44;30.10;58.20
36990;DHT22;22898;52.102;5.776;2022-07-29T12:23:10;30.20;57.90
36990;DHT22;22898;52.102;5.776;2022-07-29T12:25:40;30.40;57.60
36990;DHT22;22898;52.102;5.776;2022-07-29T12:28:17;30.60;57.30
36990;DHT22;22898;52.102;5.776;2022-07-29T12:30:49;30.50;57.40
36990;DHT22;22898;52.102;5.776;2022-07-29T12:33:23;30.50;57.60
36990;DHT22;22898;52.102;5.776;2022-07-29T12:35:52;30.50;57.20
36990;DHT22;22898;52.102;5.776;2022-07-29T12:38:19;30.60;56.50
36990;DHT22;22898;52.102;5.776;2022-07-29T12:40:45;30.60;56.70
36990;DHT22;22898;52.102;5.776;2022-07-29T12:46:11;31.10;56.90
36990;DHT22;22898;52.102;5.776;2022-07-29T12:48:37;31.50;56.50
36990;DHT22;22898;52.102;5.776;2022-07-29T12:51:04;31.60;55.80
36990;DHT22;22898;52.102;5.776;2022-07-29T12:53:31;31.60;56.00
36990;DHT22;22898;52.102;5.776;2022-07-29T12:55:58;31.40;56.30
36990;DHT22;22898;52.102;5.776;2022-07-29T12:58:30;31.80;56.60
36990;DHT22;22898;52.102;5.776;2022-07-29T13:01:22;31.80;55.70
36990;DHT22;22898;52.102;5.776;2022-07-29T13:03:53;31.30;56.90
36990;DHT22;22898;52.102;5.776;2022-07-29T13:06:44;30.80;57.70
36990;DHT22;22898;52.102;5.776;2022-07-29T13:09:17;30.60;58.50
36990;DHT22;22898;52.102;5.776;2022-07-29T13:11:48;31.00;57.80
36990;DHT22;22898;52.102;5.776;2022-07-29T13:14:30;31.40;56.80
36990;DHT22;22898;52.102;5.776;2022-07-29T13:17:13;31.40;57.10
36990;DHT22;22898;52.102;5.776;2022-07-29T13:19:43;31.50;56.70
36990;DHT22;22898;52.102;5.776;2022-07-29T13:22:17;31.00;56.90
36990;DHT22;22898;52.102;5.776;2022-07-29T13:25:00;31.30;56.70
36990;DHT22;22898;52.102;5.776;2022-07-29T13:27:31;31.20;57.30
36990;DHT22;22898;52.102;5.776;2022-07-29T13:30:04;31.10;57.20
36990;DHT22;22898;52.102;5.776;2022-07-29T13:32:31;31.10;57.20
36990;DHT22;22898;52.102;5.776;2022-07-29T13:34:59;31.20;57.40
36990;DHT22;22898;52.102;5.776;2022-07-29T13:37:25;31.30;56.90
36990;DHT22;22898;52.102;5.776;2022-07-29T13:39:51;31.20;57.40
36990;DHT22;22898;52.102;5.776;2022-07-29T13:42:18;31.30;56.80
36990;DHT22;22898;52.102;5.776;2022-07-29T13:44:44;31.30;57.10
36990;DHT22;22898;52.102;5.776;2022-07-29T13:47:09;31.60;56.80
36990;DHT22;22898;52.102;5.776;2022-07-29T13:49:35;32.00;56.60
36990;DHT22;22898;52.102;5.776;2022-07-29T13:52:06;31.60;57.00
36990;DHT22;22898;52.102;5.776;2022-07-29T13:54:32;31.80;55.90
36990;DHT22;22898;52.102;5.776;2022-07-29T13:56:58;32.20;55.80
36990;DHT22;22898;52.102;5.776;2022-07-29T13:59:24;32.50;54.00
36990;DHT22;22898;52.102;5.776;2022-07-29T14:01:49;32.60;54.80
36990;DHT22;22898;52.102;5.776;2022-07-29T14:04:16;32.60;55.30
36990;DHT22;22898;52.102;5.776;2022-07-29T14:06:41;32.80;55.10
36990;DHT22;22898;52.102;5.776;2022-07-29T14:09:07;32.60;56.60
36990;DHT22;22898;52.102;5.776;2022-07-29T14:11:35;32.10;57.20
36990;DHT22;22898;52.102;5.776;2022-07-29T14:14:03;31.80;58.30
36990;DHT22;22898;52.102;5.776;2022-07-29T14:16:29;31.20;59.70
36990;DHT22;22898;52.102;5.776;2022-07-29T14:18:55;30.70;60.80
36990;DHT22;22898;52.102;5.776;2022-07-29T14:21:20;30.70;59.80
36990;DHT22;22898;52.102;5.776;2022-07-29T14:23:46;30.80;59.00
36990;DHT22;22898;52.102;5.776;2022-07-29T14:26:11;30.80;59.30
36990;DHT22;22898;52.102;5.776;2022-07-29T14:28:37;31.00;59.00
36990;DHT22;22898;52.102;5.776;2022-07-29T14:31:02;31.00;60.30
36990;DHT22;22898;52.102;5.776;2022-07-29T14:33:28;30.80;61.60
36990;DHT22;22898;52.102;5.776;2022-07-29T14:35:54;30.80;62.10
36990;DHT22;22898;52.102;5.776;2022-07-29T14:38:19;30.40;62.50
36990;DHT22;22898;52.102;5.776;2022-07-29T14:40:45;30.50;61.70
36990;DHT22;22898;52.102;5.776;2022-07-29T14:43:12;30.50;61.90
36990;DHT22;22898;52.102;5.776;2022-07-29T14:45:39;30.80;61.60
36990;DHT22;22898;52.102;5.776;2022-07-29T14:48:05;30.90;62.20
36990;DHT22;22898;52.102;5.776;2022-07-29T14:50:33;31.00;62.20
36990;DHT22;22898;52.102;5.776;2022-07-29T14:53:05;30.50;64.10
36990;DHT22;22898;52.102;5.776;2022-07-29T14:55:31;29.80;65.40
36990;DHT22;22898;52.102;5.776;2022-07-29T14:57:56;29.70;62.00
36990;DHT22;22898;52.102;5.776;2022-07-29T15:00:24;29.60;62.30
36990;DHT22;22898;52.102;5.776;2022-07-29T15:02:50;28.90;64.00
36990;DHT22;22898;52.102;5.776;2022-07-29T15:05:15;28.90;64.10
36990;DHT22;22898;52.102;5.776;2022-07-29T15:07:41;29.40;63.30
36990;DHT22;22898;52.102;5.776;2022-07-29T15:10:07;29.70;62.20
36990;DHT22;22898;52.102;5.776;2022-07-29T15:12:35;30.00;61.90
36990;DHT22;22898;52.102;5.776;2022-07-29T15:15:01;30.60;59.60
36990;DHT22;22898;52.102;5.776;2022-07-29T15:17:27;30.90;59.40
36990;DHT22;22898;52.102;5.776;2022-07-29T15:19:53;30.50;60.00
36990;DHT22;22898;52.102;5.776;2022-07-29T15:22:18;30.20;61.10
36990;DHT22;22898;52.102;5.776;2022-07-29T15:24:44;30.20;61.30
36990;DHT22;22898;52.102;5.776;2022-07-29T15:27:10;30.30;60.40
36990;DHT22;22898;52.102;5.776;2022-07-29T15:29:44;30.30;61.40
36990;DHT22;22898;52.102;5.776;2022-07-29T15:32:10;30.70;60.10
36990;DHT22;22898;52.102;5.776;2022-07-29T15:34:36;31.10;60.00
36990;DHT22;22898;52.102;5.776;2022-07-29T15:37:03;31.60;59.30
36990;DHT22;22898;52.102;5.776;2022-07-29T15:39:29;31.80;59.00
36990;DHT22;22898;52.102;5.776;2022-07-29T15:41:55;31.80;58.80
36990;DHT22;22898;52.102;5.776;2022-07-29T15:44:25;32.10;58.40
36990;DHT22;22898;52.102;5.776;2022-07-29T15:46:51;32.10;56.90
36990;DHT22;22898;52.102;5.776;2022-07-29T15:49:32;31.80;58.00
36990;DHT22;22898;52.102;5.776;2022-07-29T15:52:01;31.60;58.10
36990;DHT22;22898;52.102;5.776;2022-07-29T15:54:28;31.70;57.60
36990;DHT22;22898;52.102;5.776;2022-07-29T15:56:54;31.80;58.50
36990;DHT22;22898;52.102;5.776;2022-07-29T15:59:20;31.80;58.00
36990;DHT22;22898;52.102;5.776;2022-07-29T16:01:46;32.00;58.20
36990;DHT22;22898;52.102;5.776;2022-07-29T16:04:12;31.80;58.20
36990;DHT22;22898;52.102;5.776;2022-07-29T16:06:37;31.90;58.50
36990;DHT22;22898;52.102;5.776;2022-07-29T16:09:03;31.80;58.20
36990;DHT22;22898;52.102;5.776;2022-07-29T16:11:28;31.80;58.00
36990;DHT22;22898;52.102;5.776;2022-07-29T16:13:54;31.30;58.30
36990;DHT22;22898;52.102;5.776;2022-07-29T16:16:20;31.30;59.30
36990;DHT22;22898;52.102;5.776;2022-07-29T16:18:45;31.10;58.70
36990;DHT22;22898;52.102;5.776;2022-07-29T16:21:12;31.30;58.50
36990;DHT22;22898;52.102;5.776;2022-07-29T16:23:38;31.10;58.90
36990;DHT22;22898;52.102;5.776;2022-07-29T16:26:04;31.50;58.20
36990;DHT22;22898;52.102;5.776;2022-07-29T16:28:30;31.50;58.10
36990;DHT22;22898;52.102;5.776;2022-07-29T16:30:56;31.50;57.30
36990;DHT22;22898;52.102;5.776;2022-07-29T16:33:22;31.60;58.10
36990;DHT22;22898;52.102;5.776;2022-07-29T16:35:49;32.20;56.10
36990;DHT22;22898;52.102;5.776;2022-07-29T16:38:15;32.80;56.00
36990;DHT22;22898;52.102;5.776;2022-07-29T16:40:41;32.30;56.30
36990;DHT22;22898;52.102;5.776;2022-07-29T16:43:06;31.70;57.80
36990;DHT22;22898;52.102;5.776;2022-07-29T16:45:33;30.90;58.90
36990;DHT22;22898;52.102;5.776;2022-07-29T16:48:00;30.10;60.30
36990;DHT22;22898;52.102;5.776;2022-07-29T16:50:27;29.70;60.20
36990;DHT22;22898;52.102;5.776;2022-07-29T16:52:53;29.50;60.40
36990;DHT22;22898;52.102;5.776;2022-07-29T16:55:19;29.30;60.40